sensor_id;sensor_type;location;lat;lon;timestamp;P1;durP1;ratioP1;P2;durP2;ratioP2
15181;SDS011;7692;50.602;8.692;2023-11-21T00:00:15;1.10;;;1.10;;
15181;SDS011;7692;50.602;8.692;2023-11-21T00:02:43;1.50;;;1.50;;
15181;SDS011;7692;50.602;8.692;2023-11-21T00:05:13;1.30;;;1.30;;
15181;SDS011;7692;50.602;8.692;2023-11-21T00:07:42;1.60;;;1.60;;
15181;SDS011;7692;50.602;8.692;2023-11-21T00:10:11;1.10;;;1.10;;
15181;SDS011;7692;50.602;8.692;2023-11-21T00:12:42;1.30;;;1.30;;
15181;SDS011;7692;50.602;8.692;2023-11-21T00:15:11;1.20;;;1.20;;
15181;SDS011;7692;50.602;8.692;2023-11-21T00:17:40;1.60;;;1.60;;
15181;SDS011;7692;50.602;8.692;2023-11-21T00:20:09;1.40;;;1.40;;
15181;SDS011;7692;50.602;8.692;2023-11-21T00:22:40;1.40;;;1.40;;
15181;SDS011;7692;50.602;8.692;2023-11-21T00:25:08;1.30;;;1.30;;
15181;SDS011;7692;50.602;8.692;2023-11-21T00:27:37;1.20;;;1.20;;
15181;SDS011;7692;50.602;8.692;2023-11-21T00:30:06;1.20;;;1.20;;
15181;SDS011;7692;50.602;8.692;2023-11-21T00:32:35;1.40;;;1.40;;
15181;SDS011;7692;50.602;8.692;2023-11-21T00:35:05;1.40;;;1.40;;
15181;SDS011;7692;50.602;8.692;2023-11-21T00:37:34;1.20;;;1.20;;
15181;SDS011;7692;50.602;8.692;2023-11-21T00:40:02;1.60;;;1.60;;
15181;SDS011;7692;50.602;8.692;2023-11-21T00:42:33;1.40;;;1.40;;
15181;SDS011;7692;50.602;8.692;2023-11-21T00:45:02;1.20;;;1.20;;
15181;SDS011;7692;50.602;8.692;2023-11-21T00:47:31;1.30;;;1.30;;
15181;SDS011;7692;50.602;8.692;2023-11-21T00:49:59;1.40;;;1.40;;
15181;SDS011;7692;50.602;8.692;2023-11-21T00:52:30;1.50;;;1.50;;
15181;SDS011;7692;50.602;8.692;2023-11-21T00:54:58;1.40;;;1.40;;
15181;SDS011;7692;50.602;8.692;2023-11-21T00:57:26;1.30;;;1.30;;
15181;SDS011;7692;50.602;8.692;2023-11-21T00:59:55;1.40;;;1.40;;
15181;SDS011;7692;50.602;8.692;2023-11-21T01:02:23;1.40;;;1.40;;
15181;SDS011;7692;50.602;8.692;2023-11-21T01:04:52;1.27;;;1.27;;
15181;SDS011;7692;50.602;8.692;2023-11-21T01:07:20;1.30;;;1.30;;
15181;SDS011;7692;50.602;8.692;2023-11-21T01:09:51;1.30;;;1.30;;
15181;SDS011;7692;50.602;8.692;2023-11-21T01:12:19;1.30;;;1.30;;
15181;SDS011;7692;50.602;8.692;2023-11-21T01:14:47;1.50;;;1.50;;
15181;SDS011;7692;50.602;8.692;2023-11-21T01:17:16;1.50;;;1.50;;
15181;SDS011;7692;50.602;8.692;2023-11-21T01:19:45;1.20;;;1.20;;
15181;SDS011;7692;50.602;8.692;2023-11-21T01:22:13;1.50;;;1.50;;
15181;SDS011;7692;50.602;8.692;2023-11-21T01:24:45;1.40;;;1.40;;
15181;SDS011;7692;50.602;8.692;2023-11-21T01:27:14;1.20;;;1.20;;
15181;SDS011;7692;50.602;8.692;2023-11-21T01:29:43;1.70;;;1.70;;
15181;SDS011;7692;50.602;8.692;2023-11-21T01:32:12;1.60;;;1.60;;
15181;SDS011;7692;50.602;8.692;2023-11-21T01:34:41;1.40;;;1.40;;
15181;SDS011;7692;50.602;8.692;2023-11-21T01:37:10;1.67;;;1.67;;
15181;SDS011;7692;50.602;8.692;2023-11-21T01:39:38;1.40;;;1.40;;
15181;SDS011;7692;50.602;8.692;2023-11-21T01:42:06;1.60;;;1.60;;
15181;SDS011;7692;50.602;8.692;2023-11-21T01:44:36;1.50;;;1.50;;
15181;SDS011;7692;50.602;8.692;2023-11-21T01:47:05;1.40;;;1.40;;
15181;SDS011;7692;50.602;8.692;2023-11-21T01:49:33;1.30;;;1.30;;
15181;SDS011;7692;50.602;8.692;2023-11-21T01:52:02;1.50;;;1.50;;
15181;SDS011;7692;50.602;8.692;2023-11-21T01:54:31;1.30;;;1.30;;
15181;SDS011;7692;50.602;8.692;2023-11-21T01:57:00;1.30;;;1.30;;
15181;SDS011;7692;50.602;8.692;2023-11-21T01:59:34;1.67;;;1.67;;
15181;SDS011;7692;50.602;8.692;2023-11-21T02:02:04;1.20;;;1.20;;
15181;SDS011;7692;50.602;8.692;2023-11-21T02:04:35;1.30;;;1.30;;
15181;SDS011;7692;50.602;8.692;2023-11-21T02:07:04;1.30;;;1.30;;
15181;SDS011;7692;50.602;8.692;2023-11-21T02:09:32;1.30;;;1.30;;
15181;SDS011;7692;50.602;8.692;2023-11-21T02:12:00;1.30;;;1.30;;
15181;SDS011;7692;50.602;8.692;2023-11-21T02:14:29;1.80;;;1.80;;
15181;SDS011;7692;50.602;8.692;2023-11-21T02:16:58;1.50;;;1.50;;
15181;SDS011;7692;50.602;8.692;2023-11-21T02:19:28;1.50;;;1.50;;
15181;SDS011;7692;50.602;8.692;2023-11-21T02:21:57;1.20;;;1.20;;
15181;SDS011;7692;50.602;8.692;2023-11-21T02:24:31;1.30;;;1.30;;
15181;SDS011;7692;50.602;8.692;2023-11-21T02:26:59;1.20;;;1.20;;
15181;SDS011;7692;50.602;8.692;2023-11-21T02:29:27;1.50;;;1.50;;
15181;SDS011;7692;50.602;8.692;2023-11-21T02:31:56;1.40;;;1.40;;
15181;SDS011;7692;50.602;8.692;2023-11-21T02:34:24;1.30;;;1.30;;
15181;SDS011;7692;50.602;8.692;2023-11-21T02:36:52;1.30;;;1.30;;
15181;SDS011;7692;50.602;8.692;2023-11-21T02:39:21;1.30;;;1.30;;
15181;SDS011;7692;50.602;8.692;2023-11-21T02:41:52;1.30;;;1.30;;
15181;SDS011;7692;50.602;8.692;2023-11-21T02:44:20;1.20;;;1.20;;
15181;SDS011;7692;50.602;8.692;2023-11-21T02:46:48;1.50;;;1.50;;
15181;SDS011;7692;50.602;8.692;2023-11-21T02:49:16;1.30;;;1.30;;
15181;SDS011;7692;50.602;8.692;2023-11-21T02:51:45;1.30;;;1.30;;
15181;SDS011;7692;50.602;8.692;2023-11-21T02:54:13;1.50;;;1.50;;
15181;SDS011;7692;50.602;8.692;2023-11-21T02:56:45;1.30;;;1.30;;
15181;SDS011;7692;50.602;8.692;2023-11-21T02:59:15;1.27;;;1.27;;
15181;SDS011;7692;50.602;8.692;2023-11-21T03:01:44;1.70;;;1.70;;
15181;SDS011;7692;50.602;8.692;2023-11-21T03:04:12;1.30;;;1.30;;
15181;SDS011;7692;50.602;8.692;2023-11-21T03:06:44;1.30;;;1.30;;
15181;SDS011;7692;50.602;8.692;2023-11-21T03:09:12;1.50;;;1.50;;
15181;SDS011;7692;50.602;8.692;2023-11-21T03:11:40;1.70;;;1.70;;
15181;SDS011;7692;50.602;8.692;2023-11-21T03:14:08;1.60;;;1.60;;
15181;SDS011;7692;50.602;8.692;2023-11-21T03:16:39;1.30;;;1.30;;
15181;SDS011;7692;50.602;8.692;2023-11-21T03:19:07;1.70;;;1.70;;
15181;SDS011;7692;50.602;8.692;2023-11-21T03:21:35;1.20;;;1.20;;
15181;SDS011;7692;50.602;8.692;2023-11-21T03:24:04;1.50;;;1.50;;
15181;SDS011;7692;50.602;8.692;2023-11-21T03:26:34;1.63;;;1.63;;
15181;SDS011;7692;50.602;8.692;2023-11-21T03:29:03;1.50;;;1.50;;
15181;SDS011;7692;50.602;8.692;2023-11-21T03:31:32;1.30;;;1.30;;
15181;SDS011;7692;50.602;8.692;2023-11-21T03:34:01;1.30;;;1.30;;
15181;SDS011;7692;50.602;8.692;2023-11-21T03:36:30;1.50;;;1.50;;
15181;SDS011;7692;50.602;8.692;2023-11-21T03:38:59;1.40;;;1.40;;
15181;SDS011;7692;50.602;8.692;2023-11-21T03:41:27;1.37;;;1.37;;
15181;SDS011;7692;50.602;8.692;2023-11-21T03:43:55;1.30;;;1.30;;
15181;SDS011;7692;50.602;8.692;2023-11-21T03:46:23;1.30;;;1.30;;
15181;SDS011;7692;50.602;8.692;2023-11-21T03:48:51;1.70;;;1.70;;
15181;SDS011;7692;50.602;8.692;2023-11-21T03:51:22;1.40;;;1.40;;
15181;SDS011;7692;50.602;8.692;2023-11-21T03:53:50;1.40;;;1.40;;
15181;SDS011;7692;50.602;8.692;2023-11-21T03:56:18;1.43;;;1.43;;
15181;SDS011;7692;50.602;8.692;2023-11-21T03:58:48;1.30;;;1.30;;
15181;SDS011;7692;50.602;8.692;2023-11-21T04:01:20;1.80;;;1.80;;
15181;SDS011;7692;50.602;8.692;2023-11-21T04:03:49;1.40;;;1.40;;
15181;SDS011;7692;50.602;8.692;2023-11-21T04:06:18;1.30;;;1.30;;
15181;SDS011;7692;50.602;8.692;2023-11-21T04:08:47;1.30;;;1.30;;
15181;SDS011;7692;50.602;8.692;2023-11-21T04:11:15;1.87;;;1.87;;
15181;SDS011;7692;50.602;8.692;2023-11-21T04:13:43;1.60;;;1.60;;
15181;SDS011;7692;50.602;8.692;2023-11-21T04:16:13;1.80;;;1.80;;
15181;SDS011;7692;50.602;8.692;2023-11-21T04:18:42;1.60;;;1.60;;
15181;SDS011;7692;50.602;8.692;2023-11-21T04:21:09;1.70;;;1.70;;
15181;SDS011;7692;50.602;8.692;2023-11-21T04:23:38;1.40;;;1.40;;
15181;SDS011;7692;50.602;8.692;2023-11-21T04:26:08;1.53;;;1.53;;
15181;SDS011;7692;50.602;8.692;2023-11-21T04:28:36;1.30;;;1.30;;
15181;SDS011;7692;50.602;8.692;2023-11-21T04:31:04;1.30;;;1.30;;
15181;SDS011;7692;50.602;8.692;2023-11-21T04:33:33;1.80;;;1.80;;
15181;SDS011;7692;50.602;8.692;2023-11-21T04:36:01;1.70;;;1.70;;
15181;SDS011;7692;50.602;8.692;2023-11-21T04:38:30;1.30;;;1.30;;
15181;SDS011;7692;50.602;8.692;2023-11-21T04:40:59;1.30;;;1.30;;
15181;SDS011;7692;50.602;8.692;2023-11-21T04:43:30;1.30;;;1.30;;
15181;SDS011;7692;50.602;8.692;2023-11-21T04:45:58;1.80;;;1.80;;
15181;SDS011;7692;50.602;8.692;2023-11-21T04:48:26;1.40;;;1.40;;
15181;SDS011;7692;50.602;8.692;2023-11-21T04:50:55;1.30;;;1.30;;
15181;SDS011;7692;50.602;8.692;2023-11-21T04:53:23;1.70;;;1.70;;
15181;SDS011;7692;50.602;8.692;2023-11-21T04:55:51;1.40;;;1.40;;
15181;SDS011;7692;50.602;8.692;2023-11-21T04:58:19;1.40;;;1.40;;
15181;SDS011;7692;50.602;8.692;2023-11-21T05:00:49;1.60;;;1.60;;
15181;SDS011;7692;50.602;8.692;2023-11-21T05:03:17;1.40;;;1.40;;
15181;SDS011;7692;50.602;8.692;2023-11-21T05:05:45;1.30;;;1.30;;
15181;SDS011;7692;50.602;8.692;2023-11-21T05:08:13;1.80;;;1.80;;
15181;SDS011;7692;50.602;8.692;2023-11-21T05:10:42;1.90;;;1.90;;
15181;SDS011;7692;50.602;8.692;2023-11-21T05:13:10;1.30;;;1.30;;
15181;SDS011;7692;50.602;8.692;2023-11-21T05:15:38;1.30;;;1.30;;
15181;SDS011;7692;50.602;8.692;2023-11-21T05:18:08;1.60;;;1.60;;
15181;SDS011;7692;50.602;8.692;2023-11-21T05:20:36;1.40;;;1.40;;
15181;SDS011;7692;50.602;8.692;2023-11-21T05:23:05;1.40;;;1.40;;
15181;SDS011;7692;50.602;8.692;2023-11-21T05:25:34;1.40;;;1.40;;
15181;SDS011;7692;50.602;8.692;2023-11-21T05:28:06;1.40;;;1.40;;
15181;SDS011;7692;50.602;8.692;2023-11-21T05:30:34;1.30;;;1.30;;
15181;SDS011;7692;50.602;8.692;2023-11-21T05:33:02;1.60;;;1.60;;
15181;SDS011;7692;50.602;8.692;2023-11-21T05:35:32;1.60;;;1.60;;
15181;SDS011;7692;50.602;8.692;2023-11-21T05:38:00;1.30;;;1.30;;
15181;SDS011;7692;50.602;8.692;2023-11-21T05:40:28;1.30;;;1.30;;
15181;SDS011;7692;50.602;8.692;2023-11-21T05:42:56;1.40;;;1.40;;
15181;SDS011;7692;50.602;8.692;2023-11-21T05:45:24;1.30;;;1.30;;
15181;SDS011;7692;50.602;8.692;2023-11-21T05:47:52;1.43;;;1.43;;
15181;SDS011;7692;50.602;8.692;2023-11-21T05:50:21;1.50;;;1.50;;
15181;SDS011;7692;50.602;8.692;2023-11-21T05:52:50;1.50;;;1.50;;
15181;SDS011;7692;50.602;8.692;2023-11-21T05:55:19;1.80;;;1.80;;
15181;SDS011;7692;50.602;8.692;2023-11-21T05:57:47;1.40;;;1.40;;
15181;SDS011;7692;50.602;8.692;2023-11-21T06:00:16;1.60;;;1.60;;
15181;SDS011;7692;50.602;8.692;2023-11-21T06:02:48;1.90;;;1.90;;
15181;SDS011;7692;50.602;8.692;2023-11-21T06:05:17;1.33;;;1.33;;
15181;SDS011;7692;50.602;8.692;2023-11-21T06:07:46;1.30;;;1.30;;
15181;SDS011;7692;50.602;8.692;2023-11-21T06:10:16;1.50;;;1.50;;
15181;SDS011;7692;50.602;8.692;2023-11-21T06:12:46;1.80;;;1.80;;
15181;SDS011;7692;50.602;8.692;2023-11-21T06:15:15;1.40;;;1.40;;
15181;SDS011;7692;50.602;8.692;2023-11-21T06:17:45;1.30;;;1.30;;
15181;SDS011;7692;50.602;8.692;2023-11-21T06:20:18;1.40;;;1.40;;
15181;SDS011;7692;50.602;8.692;2023-11-21T06:22:48;1.60;;;1.60;;
15181;SDS011;7692;50.602;8.692;2023-11-21T06:25:19;1.40;;;1.40;;
15181;SDS011;7692;50.602;8.692;2023-11-21T06:27:47;1.40;;;1.40;;
15181;SDS011;7692;50.602;8.692;2023-11-21T06:30:16;1.60;;;1.60;;
15181;SDS011;7692;50.602;8.692;2023-11-21T06:32:46;1.90;;;1.90;;
15181;SDS011;7692;50.602;8.692;2023-11-21T06:35:15;1.40;;;1.40;;
15181;SDS011;7692;50.602;8.692;2023-11-21T06:37:43;1.60;;;1.60;;
15181;SDS011;7692;50.602;8.692;2023-11-21T06:40:15;1.40;;;1.40;;
15181;SDS011;7692;50.602;8.692;2023-11-21T06:42:47;1.57;;;1.57;;
15181;SDS011;7692;50.602;8.692;2023-11-21T06:45:17;1.60;;;1.60;;
15181;SDS011;7692;50.602;8.692;2023-11-21T06:47:46;1.40;;;1.40;;
15181;SDS011;7692;50.602;8.692;2023-11-21T06:50:15;1.40;;;1.40;;
15181;SDS011;7692;50.602;8.692;2023-11-21T06:52:43;1.43;;;1.43;;
15181;SDS011;7692;50.602;8.692;2023-11-21T06:55:11;1.40;;;1.40;;
15181;SDS011;7692;50.602;8.692;2023-11-21T06:57:40;1.73;;;1.73;;
15181;SDS011;7692;50.602;8.692;2023-11-21T07:00:12;1.50;;;1.50;;
15181;SDS011;7692;50.602;8.692;2023-11-21T07:02:44;1.37;;;1.37;;
15181;SDS011;7692;50.602;8.692;2023-11-21T07:05:12;1.30;;;1.30;;
15181;SDS011;7692;50.602;8.692;2023-11-21T07:07:40;1.60;;;1.60;;
15181;SDS011;7692;50.602;8.692;2023-11-21T07:10:10;1.80;;;1.80;;
15181;SDS011;7692;50.602;8.692;2023-11-21T07:12:38;1.40;;;1.40;;
15181;SDS011;7692;50.602;8.692;2023-11-21T07:15:07;1.30;;;1.30;;
15181;SDS011;7692;50.602;8.692;2023-11-21T07:17:37;1.50;;;1.50;;
15181;SDS011;7692;50.602;8.692;2023-11-21T07:20:07;1.40;;;1.40;;
15181;SDS011;7692;50.602;8.692;2023-11-21T07:22:37;1.30;;;1.30;;
15181;SDS011;7692;50.602;8.692;2023-11-21T07:25:07;1.70;;;1.70;;
15181;SDS011;7692;50.602;8.692;2023-11-21T07:27:36;1.40;;;1.40;;
15181;SDS011;7692;50.602;8.692;2023-11-21T07:30:04;1.60;;;1.60;;
15181;SDS011;7692;50.602;8.692;2023-11-21T07:32:36;1.60;;;1.60;;
15181;SDS011;7692;50.602;8.692;2023-11-21T07:35:14;1.80;;;1.80;;
15181;SDS011;7692;50.602;8.692;2023-11-21T07:37:51;1.70;;;1.70;;
15181;SDS011;7692;50.602;8.692;2023-11-21T07:40:19;1.87;;;1.87;;
15181;SDS011;7692;50.602;8.692;2023-11-21T07:42:49;1.80;;;1.80;;
15181;SDS011;7692;50.602;8.692;2023-11-21T07:45:17;1.30;;;1.30;;
15181;SDS011;7692;50.602;8.692;2023-11-21T07:47:47;1.80;;;1.80;;
15181;SDS011;7692;50.602;8.692;2023-11-21T07:50:16;1.40;;;1.40;;
15181;SDS011;7692;50.602;8.692;2023-11-21T07:52:45;1.33;;;1.33;;
15181;SDS011;7692;50.602;8.692;2023-11-21T07:55:13;1.70;;;1.70;;
15181;SDS011;7692;50.602;8.692;2023-11-21T07:57:41;1.40;;;1.40;;
15181;SDS011;7692;50.602;8.692;2023-11-21T08:00:09;1.70;;;1.70;;
15181;SDS011;7692;50.602;8.692;2023-11-21T08:02:39;1.40;;;1.40;;
15181;SDS011;7692;50.602;8.692;2023-11-21T08:05:10;1.30;;;1.30;;
15181;SDS011;7692;50.602;8.692;2023-11-21T08:07:50;1.50;;;1.50;;
15181;SDS011;7692;50.602;8.692;2023-11-21T08:10:18;1.50;;;1.50;;
15181;SDS011;7692;50.602;8.692;2023-11-21T08:12:49;1.80;;;1.80;;
15181;SDS011;7692;50.602;8.692;2023-11-21T08:15:18;1.30;;;1.30;;
15181;SDS011;7692;50.602;8.692;2023-11-21T08:17:46;1.50;;;1.50;;
15181;SDS011;7692;50.602;8.692;2023-11-21T08:20:16;1.80;;;1.80;;
15181;SDS011;7692;50.602;8.692;2023-11-21T08:22:45;1.50;;;1.50;;
15181;SDS011;7692;50.602;8.692;2023-11-21T08:25:15;1.50;;;1.50;;
15181;SDS011;7692;50.602;8.692;2023-11-21T08:27:46;1.33;;;1.33;;
15181;SDS011;7692;50.602;8.692;2023-11-21T08:30:15;1.30;;;1.30;;
15181;SDS011;7692;50.602;8.692;2023-11-21T08:32:45;1.43;;;1.43;;
15181;SDS011;7692;50.602;8.692;2023-11-21T08:35:13;1.40;;;1.40;;
15181;SDS011;7692;50.602;8.692;2023-11-21T08:37:43;1.40;;;1.40;;
15181;SDS011;7692;50.602;8.692;2023-11-21T08:40:12;1.47;;;1.47;;
15181;SDS011;7692;50.602;8.692;2023-11-21T08:42:43;1.50;;;1.50;;
15181;SDS011;7692;50.602;8.692;2023-11-21T08:45:13;1.40;;;1.40;;
15181;SDS011;7692;50.602;8.692;2023-11-21T08:47:41;1.40;;;1.40;;
15181;SDS011;7692;50.602;8.692;2023-11-21T08:50:10;1.60;;;1.60;;
15181;SDS011;7692;50.602;8.692;2023-11-21T08:52:41;1.40;;;1.40;;
15181;SDS011;7692;50.602;8.692;2023-11-21T08:55:09;1.20;;;1.20;;
15181;SDS011;7692;50.602;8.692;2023-11-21T08:57:39;1.20;;;1.20;;
15181;SDS011;7692;50.602;8.692;2023-11-21T09:00:08;1.33;;;1.33;;
15181;SDS011;7692;50.602;8.692;2023-11-21T09:02:39;1.43;;;1.43;;
15181;SDS011;7692;50.602;8.692;2023-11-21T09:05:09;1.30;;;1.30;;
15181;SDS011;7692;50.602;8.692;2023-11-21T09:07:38;1.40;;;1.40;;
15181;SDS011;7692;50.602;8.692;2023-11-21T09:10:08;1.40;;;1.40;;
15181;SDS011;7692;50.602;8.692;2023-11-21T09:12:37;1.30;;;1.30;;
15181;SDS011;7692;50.602;8.692;2023-11-21T09:15:06;1.40;;;1.40;;
15181;SDS011;7692;50.602;8.692;2023-11-21T09:17:36;1.30;;;1.30;;
15181;SDS011;7692;50.602;8.692;2023-11-21T09:20:05;1.30;;;1.30;;
15181;SDS011;7692;50.602;8.692;2023-11-21T09:22:37;1.33;;;1.33;;
15181;SDS011;7692;50.602;8.692;2023-11-21T09:25:06;1.40;;;1.40;;
15181;SDS011;7692;50.602;8.692;2023-11-21T09:27:36;1.40;;;1.40;;
15181;SDS011;7692;50.602;8.692;2023-11-21T09:30:05;1.30;;;1.30;;
15181;SDS011;7692;50.602;8.692;2023-11-21T09:32:37;1.33;;;1.33;;
15181;SDS011;7692;50.602;8.692;2023-11-21T09:35:07;1.50;;;1.50;;
15181;SDS011;7692;50.602;8.692;2023-11-21T09:37:44;1.30;;;1.30;;
15181;SDS011;7692;50.602;8.692;2023-11-21T09:40:17;1.30;;;1.30;;
15181;SDS011;7692;50.602;8.692;2023-11-21T09:42:52;1.30;;;1.30;;
15181;SDS011;7692;50.602;8.692;2023-11-21T09:45:25;1.30;;;1.30;;
15181;SDS011;7692;50.602;8.692;2023-11-21T09:47:55;1.40;;;1.40;;
15181;SDS011;7692;50.602;8.692;2023-11-21T09:50:24;1.30;;;1.30;;
15181;SDS011;7692;50.602;8.692;2023-11-21T09:52:57;1.30;;;1.30;;
15181;SDS011;7692;50.602;8.692;2023-11-21T09:55:35;1.30;;;1.30;;
15181;SDS011;7692;50.602;8.692;2023-11-21T09:58:05;1.27;;;1.27;;
15181;SDS011;7692;50.602;8.692;2023-11-21T10:00:34;1.20;;;1.20;;
15181;SDS011;7692;50.602;8.692;2023-11-21T10:03:03;1.17;;;1.17;;
15181;SDS011;7692;50.602;8.692;2023-11-21T10:05:32;1.10;;;1.10;;
15181;SDS011;7692;50.602;8.692;2023-11-21T10:08:01;1.10;;;1.10;;
15181;SDS011;7692;50.602;8.692;2023-11-21T10:10:30;1.10;;;1.10;;
15181;SDS011;7692;50.602;8.692;2023-11-21T10:13:02;1.00;;;1.00;;
15181;SDS011;7692;50.602;8.692;2023-11-21T10:15:33;1.00;;;1.00;;
15181;SDS011;7692;50.602;8.692;2023-11-21T10:18:02;0.90;;;0.90;;
15181;SDS011;7692;50.602;8.692;2023-11-21T10:20:32;1.00;;;1.00;;
15181;SDS011;7692;50.602;8.692;2023-11-21T10:23:01;1.00;;;1.00;;
15181;SDS011;7692;50.602;8.692;2023-11-21T10:25:30;1.00;;;1.00;;
15181;SDS011;7692;50.602;8.692;2023-11-21T10:27:58;1.00;;;1.00;;
15181;SDS011;7692;50.602;8.692;2023-11-21T10:30:29;0.90;;;0.90;;
15181;SDS011;7692;50.602;8.692;2023-11-21T10:33:03;0.90;;;0.90;;
15181;SDS011;7692;50.602;8.692;2023-11-21T10:35:42;1.00;;;1.00;;
15181;SDS011;7692;50.602;8.692;2023-11-21T10:38:14;1.00;;;1.00;;
15181;SDS011;7692;50.602;8.692;2023-11-21T10:40:42;0.90;;;0.90;;
15181;SDS011;7692;50.602;8.692;2023-11-21T10:43:13;1.00;;;1.00;;
15181;SDS011;7692;50.602;8.692;2023-11-21T10:45:44;0.90;;;0.90;;
15181;SDS011;7692;50.602;8.692;2023-11-21T10:48:13;1.00;;;1.00;;
15181;SDS011;7692;50.602;8.692;2023-11-21T10:50:43;1.00;;;1.00;;
15181;SDS011;7692;50.602;8.692;2023-11-21T10:53:11;1.00;;;1.00;;
15181;SDS011;7692;50.602;8.692;2023-11-21T10:55:40;1.03;;;1.03;;
15181;SDS011;7692;50.602;8.692;2023-11-21T10:58:11;1.00;;;1.00;;
15181;SDS011;7692;50.602;8.692;2023-11-21T11:00:41;1.00;;;1.00;;
15181;SDS011;7692;50.602;8.692;2023-11-21T11:03:13;1.00;;;1.00;;
15181;SDS011;7692;50.602;8.692;2023-11-21T11:05:43;1.00;;;1.00;;
15181;SDS011;7692;50.602;8.692;2023-11-21T11:08:19;1.00;;;1.00;;
15181;SDS011;7692;50.602;8.692;2023-11-21T11:10:54;1.10;;;1.10;;
15181;SDS011;7692;50.602;8.692;2023-11-21T11:13:23;1.00;;;1.00;;
15181;SDS011;7692;50.602;8.692;2023-11-21T11:15:52;1.10;;;1.10;;
15181;SDS011;7692;50.602;8.692;2023-11-21T11:18:23;1.00;;;1.00;;
15181;SDS011;7692;50.602;8.692;2023-11-21T11:20:51;1.10;;;1.10;;
15181;SDS011;7692;50.602;8.692;2023-11-21T11:23:27;1.07;;;1.07;;
15181;SDS011;7692;50.602;8.692;2023-11-21T11:26:05;1.00;;;1.00;;
15181;SDS011;7692;50.602;8.692;2023-11-21T11:28:38;1.00;;;1.00;;
15181;SDS011;7692;50.602;8.692;2023-11-21T11:31:10;1.10;;;1.10;;
15181;SDS011;7692;50.602;8.692;2023-11-21T11:33:46;1.10;;;1.10;;
15181;SDS011;7692;50.602;8.692;2023-11-21T11:36:17;1.10;;;1.10;;
15181;SDS011;7692;50.602;8.692;2023-11-21T11:38:50;1.10;;;1.10;;
15181;SDS011;7692;50.602;8.692;2023-11-21T11:41:24;1.10;;;1.10;;
15181;SDS011;7692;50.602;8.692;2023-11-21T11:43:54;1.10;;;1.10;;
15181;SDS011;7692;50.602;8.692;2023-11-21T11:49:10;1.10;;;1.10;;
15181;SDS011;7692;50.602;8.692;2023-11-21T11:51:39;1.10;;;1.10;;
15181;SDS011;7692;50.602;8.692;2023-11-21T11:54:07;1.10;;;1.10;;
15181;SDS011;7692;50.602;8.692;2023-11-21T11:56:36;1.10;;;1.10;;
15181;SDS011;7692;50.602;8.692;2023-11-21T11:59:06;1.10;;;1.10;;
15181;SDS011;7692;50.602;8.692;2023-11-21T12:01:36;1.10;;;1.10;;
15181;SDS011;7692;50.602;8.692;2023-11-21T12:04:24;1.10;;;1.10;;
15181;SDS011;7692;50.602;8.692;2023-11-21T12:07:01;1.10;;;1.10;;
15181;SDS011;7692;50.602;8.692;2023-11-21T12:09:31;1.20;;;1.20;;
15181;SDS011;7692;50.602;8.692;2023-11-21T12:12:00;1.10;;;1.10;;
15181;SDS011;7692;50.602;8.692;2023-11-21T12:14:28;1.10;;;1.10;;
15181;SDS011;7692;50.602;8.692;2023-11-21T12:16:57;1.10;;;1.10;;
15181;SDS011;7692;50.602;8.692;2023-11-21T12:19:27;1.10;;;1.10;;
15181;SDS011;7692;50.602;8.692;2023-11-21T12:21:56;1.10;;;1.10;;
15181;SDS011;7692;50.602;8.692;2023-11-21T12:24:24;1.10;;;1.10;;
15181;SDS011;7692;50.602;8.692;2023-11-21T12:26:55;1.10;;;1.10;;
15181;SDS011;7692;50.602;8.692;2023-11-21T12:29:23;1.10;;;1.10;;
15181;SDS011;7692;50.602;8.692;2023-11-21T12:31:52;1.10;;;1.10;;
15181;SDS011;7692;50.602;8.692;2023-11-21T12:34:21;1.10;;;1.10;;
15181;SDS011;7692;50.602;8.692;2023-11-21T12:36:51;1.07;;;1.07;;
15181;SDS011;7692;50.602;8.692;2023-11-21T12:39:22;1.00;;;1.00;;
15181;SDS011;7692;50.602;8.692;2023-11-21T12:41:50;1.10;;;1.10;;
15181;SDS011;7692;50.602;8.692;2023-11-21T12:44:19;1.20;;;1.20;;
15181;SDS011;7692;50.602;8.692;2023-11-21T12:46:50;1.10;;;1.10;;
15181;SDS011;7692;50.602;8.692;2023-11-21T12:49:19;1.10;;;1.10;;
15181;SDS011;7692;50.602;8.692;2023-11-21T12:51:48;1.10;;;1.10;;
15181;SDS011;7692;50.602;8.692;2023-11-21T12:54:18;1.10;;;1.10;;
15181;SDS011;7692;50.602;8.692;2023-11-21T12:56:46;0.90;;;0.90;;
15181;SDS011;7692;50.602;8.692;2023-11-21T12:59:15;1.10;;;1.10;;
15181;SDS011;7692;50.602;8.692;2023-11-21T13:01:45;1.10;;;1.10;;
15181;SDS011;7692;50.602;8.692;2023-11-21T13:04:14;1.10;;;1.10;;
15181;SDS011;7692;50.602;8.692;2023-11-21T13:06:42;1.20;;;1.20;;
15181;SDS011;7692;50.602;8.692;2023-11-21T13:09:11;0.90;;;0.90;;
15181;SDS011;7692;50.602;8.692;2023-11-21T13:11:46;1.10;;;1.10;;
15181;SDS011;7692;50.602;8.692;2023-11-21T13:14:15;1.10;;;1.10;;
15181;SDS011;7692;50.602;8.692;2023-11-21T13:16:44;1.10;;;1.10;;
15181;SDS011;7692;50.602;8.692;2023-11-21T13:19:13;1.20;;;1.20;;
15181;SDS011;7692;50.602;8.692;2023-11-21T13:21:41;1.10;;;1.10;;
15181;SDS011;7692;50.602;8.692;2023-11-21T13:24:10;1.13;;;1.13;;
15181;SDS011;7692;50.602;8.692;2023-11-21T13:26:38;1.10;;;1.10;;
15181;SDS011;7692;50.602;8.692;2023-11-21T13:29:08;1.10;;;1.10;;
15181;SDS011;7692;50.602;8.692;2023-11-21T13:31:39;1.10;;;1.10;;
15181;SDS011;7692;50.602;8.692;2023-11-21T13:34:08;1.40;;;1.40;;
15181;SDS011;7692;50.602;8.692;2023-11-21T13:36:46;1.20;;;1.20;;
15181;SDS011;7692;50.602;8.692;2023-11-21T13:39:15;1.10;;;1.10;;
15181;SDS011;7692;50.602;8.692;2023-11-21T13:41:45;1.10;;;1.10;;
15181;SDS011;7692;50.602;8.692;2023-11-21T13:44:18;1.20;;;1.20;;
15181;SDS011;7692;50.602;8.692;2023-11-21T13:46:53;1.10;;;1.10;;
15181;SDS011;7692;50.602;8.692;2023-11-21T13:49:25;1.10;;;1.10;;
15181;SDS011;7692;50.602;8.692;2023-11-21T13:51:56;1.20;;;1.20;;
15181;SDS011;7692;50.602;8.692;2023-11-21T13:54:26;1.00;;;1.00;;
15181;SDS011;7692;50.602;8.692;2023-11-21T13:56:55;1.23;;;1.23;;
15181;SDS011;7692;50.602;8.692;2023-11-21T13:59:28;1.20;;;1.20;;
15181;SDS011;7692;50.602;8.692;2023-11-21T14:01:59;1.20;;;1.20;;
15181;SDS011;7692;50.602;8.692;2023-11-21T14:04:43;1.20;;;1.20;;
15181;SDS011;7692;50.602;8.692;2023-11-21T14:07:21;1.20;;;1.20;;
15181;SDS011;7692;50.602;8.692;2023-11-21T14:09:58;1.30;;;1.30;;
15181;SDS011;7692;50.602;8.692;2023-11-21T14:12:27;1.13;;;1.13;;
15181;SDS011;7692;50.602;8.692;2023-11-21T14:15:01;1.20;;;1.20;;
15181;SDS011;7692;50.602;8.692;2023-11-21T14:17:31;1.10;;;1.10;;
15181;SDS011;7692;50.602;8.692;2023-11-21T14:20:04;1.20;;;1.20;;
15181;SDS011;7692;50.602;8.692;2023-11-21T14:22:33;1.10;;;1.10;;
15181;SDS011;7692;50.602;8.692;2023-11-21T14:25:02;1.20;;;1.20;;
15181;SDS011;7692;50.602;8.692;2023-11-21T14:27:30;1.30;;;1.30;;
15181;SDS011;7692;50.602;8.692;2023-11-21T14:30:03;1.20;;;1.20;;
15181;SDS011;7692;50.602;8.692;2023-11-21T14:32:32;1.20;;;1.20;;
15181;SDS011;7692;50.602;8.692;2023-11-21T14:35:01;1.20;;;1.20;;
15181;SDS011;7692;50.602;8.692;2023-11-21T14:37:30;1.20;;;1.20;;
15181;SDS011;7692;50.602;8.692;2023-11-21T14:39:58;1.30;;;1.30;;
15181;SDS011;7692;50.602;8.692;2023-11-21T14:42:27;1.20;;;1.20;;
15181;SDS011;7692;50.602;8.692;2023-11-21T14:44:56;1.30;;;1.30;;
15181;SDS011;7692;50.602;8.692;2023-11-21T14:47:30;1.07;;;1.07;;
15181;SDS011;7692;50.602;8.692;2023-11-21T14:49:59;1.30;;;1.30;;
15181;SDS011;7692;50.602;8.692;2023-11-21T14:52:48;1.20;;;1.20;;
15181;SDS011;7692;50.602;8.692;2023-11-21T14:55:22;1.40;;;1.40;;
15181;SDS011;7692;50.602;8.692;2023-11-21T14:57:58;1.30;;;1.30;;
15181;SDS011;7692;50.602;8.692;2023-11-21T15:00:30;1.20;;;1.20;;
15181;SDS011;7692;50.602;8.692;2023-11-21T15:03:12;1.30;;;1.30;;
15181;SDS011;7692;50.602;8.692;2023-11-21T15:06:04;1.30;;;1.30;;
15181;SDS011;7692;50.602;8.692;2023-11-21T15:08:51;1.30;;;1.30;;
15181;SDS011;7692;50.602;8.692;2023-11-21T15:11:23;1.20;;;1.20;;
15181;SDS011;7692;50.602;8.692;2023-11-21T15:13:57;1.30;;;1.30;;
15181;SDS011;7692;50.602;8.692;2023-11-21T15:16:24;1.20;;;1.20;;
15181;SDS011;7692;50.602;8.692;2023-11-21T15:18:55;1.30;;;1.30;;